Terminal Aerodrome Forecast
Issued by NWS

Home | Current Version | Previous Version | Text Only | Print | Product List | Glossary On
Versions: 1 2 3 4 5 6 7 8 9 10 11 12 13 14 15 16 17 18 19 20 21 22 23 24 25 26
000
FTUS44 KLIX 180523
TAFHUM
TAF
KHUM 180523Z 1806/1906 27005KT P6SM OVC004
     FM180700 VRB03KT 5SM BR BKN008
     FM181700 23006KT P6SM SCT009 OVC035
     FM182000 20009KT P6SM SCT015 OVC029
     FM190300 16008KT 3SM BR OVC018=

USA.gov is the U.S. government's official web portal to all federal, state and local government web resources and services.